sensor_id;sensor_type;location;lat;lon;timestamp;P1;durP1;ratioP1;P2;durP2;ratioP2
14294;SDS011;7231;59.370;18.016;2023-07-02T00:00:29;2.90;;;1.70;;
14294;SDS011;7231;59.370;18.016;2023-07-02T00:02:59;3.25;;;2.00;;
14294;SDS011;7231;59.370;18.016;2023-07-02T00:05:28;2.05;;;1.80;;
14294;SDS011;7231;59.370;18.016;2023-07-02T00:07:56;2.22;;;1.80;;
14294;SDS011;7231;59.370;18.016;2023-07-02T00:10:26;1.60;;;1.48;;
14294;SDS011;7231;59.370;18.016;2023-07-02T00:12:54;2.80;;;1.90;;
14294;SDS011;7231;59.370;18.016;2023-07-02T00:15:22;2.20;;;2.00;;
14294;SDS011;7231;59.370;18.016;2023-07-02T00:17:50;2.38;;;2.17;;
14294;SDS011;7231;59.370;18.016;2023-07-02T00:20:18;2.03;;;1.92;;
14294;SDS011;7231;59.370;18.016;2023-07-02T00:22:46;2.47;;;1.95;;
14294;SDS011;7231;59.370;18.016;2023-07-02T00:25:14;3.90;;;2.25;;
14294;SDS011;7231;59.370;18.016;2023-07-02T00:27:44;2.42;;;2.17;;
14294;SDS011;7231;59.370;18.016;2023-07-02T00:30:12;2.80;;;2.08;;
14294;SDS011;7231;59.370;18.016;2023-07-02T00:32:40;2.50;;;2.30;;
14294;SDS011;7231;59.370;18.016;2023-07-02T00:35:08;4.10;;;2.10;;
14294;SDS011;7231;59.370;18.016;2023-07-02T00:37:36;2.40;;;2.20;;
14294;SDS011;7231;59.370;18.016;2023-07-02T00:40:05;2.38;;;2.10;;
14294;SDS011;7231;59.370;18.016;2023-07-02T00:42:34;3.95;;;2.15;;
14294;SDS011;7231;59.370;18.016;2023-07-02T00:45:04;3.20;;;2.28;;
14294;SDS011;7231;59.370;18.016;2023-07-02T00:47:34;3.88;;;2.45;;
14294;SDS011;7231;59.370;18.016;2023-07-02T00:50:03;2.33;;;2.13;;
14294;SDS011;7231;59.370;18.016;2023-07-02T00:52:32;3.20;;;2.10;;
14294;SDS011;7231;59.370;18.016;2023-07-02T00:55:00;2.50;;;2.30;;
14294;SDS011;7231;59.370;18.016;2023-07-02T00:57:28;2.45;;;2.20;;
14294;SDS011;7231;59.370;18.016;2023-07-02T00:59:56;4.32;;;2.85;;
14294;SDS011;7231;59.370;18.016;2023-07-02T01:02:29;3.25;;;2.35;;
14294;SDS011;7231;59.370;18.016;2023-07-02T01:04:57;4.05;;;2.42;;
14294;SDS011;7231;59.370;18.016;2023-07-02T01:07:27;2.58;;;2.38;;
14294;SDS011;7231;59.370;18.016;2023-07-02T01:09:56;3.75;;;2.42;;
14294;SDS011;7231;59.370;18.016;2023-07-02T01:12:24;2.78;;;2.10;;
14294;SDS011;7231;59.370;18.016;2023-07-02T01:14:53;2.58;;;2.35;;
14294;SDS011;7231;59.370;18.016;2023-07-02T01:17:26;2.63;;;2.13;;
14294;SDS011;7231;59.370;18.016;2023-07-02T01:20:05;3.25;;;2.30;;
14294;SDS011;7231;59.370;18.016;2023-07-02T01:22:35;3.20;;;2.20;;
14294;SDS011;7231;59.370;18.016;2023-07-02T01:25:04;3.92;;;2.15;;
14294;SDS011;7231;59.370;18.016;2023-07-02T01:27:34;3.55;;;2.30;;
14294;SDS011;7231;59.370;18.016;2023-07-02T01:30:03;2.33;;;2.20;;
14294;SDS011;7231;59.370;18.016;2023-07-02T01:32:33;2.83;;;2.22;;
14294;SDS011;7231;59.370;18.016;2023-07-02T01:35:01;2.70;;;2.25;;
14294;SDS011;7231;59.370;18.016;2023-07-02T01:37:31;5.38;;;2.55;;
14294;SDS011;7231;59.370;18.016;2023-07-02T01:40:04;2.95;;;2.28;;
14294;SDS011;7231;59.370;18.016;2023-07-02T01:42:32;2.38;;;2.17;;
14294;SDS011;7231;59.370;18.016;2023-07-02T01:45:00;2.60;;;2.10;;
14294;SDS011;7231;59.370;18.016;2023-07-02T01:47:28;6.47;;;2.72;;
14294;SDS011;7231;59.370;18.016;2023-07-02T01:49:56;3.15;;;2.55;;
14294;SDS011;7231;59.370;18.016;2023-07-02T01:52:24;4.10;;;2.97;;
14294;SDS011;7231;59.370;18.016;2023-07-02T01:54:54;4.47;;;2.83;;
14294;SDS011;7231;59.370;18.016;2023-07-02T01:57:22;3.55;;;2.40;;
14294;SDS011;7231;59.370;18.016;2023-07-02T01:59:50;3.13;;;2.55;;
14294;SDS011;7231;59.370;18.016;2023-07-02T02:02:18;5.00;;;2.55;;
14294;SDS011;7231;59.370;18.016;2023-07-02T02:04:46;2.53;;;2.33;;
14294;SDS011;7231;59.370;18.016;2023-07-02T02:07:14;3.60;;;2.58;;
14294;SDS011;7231;59.370;18.016;2023-07-02T02:09:42;2.70;;;2.50;;
14294;SDS011;7231;59.370;18.016;2023-07-02T02:12:11;2.80;;;2.22;;
14294;SDS011;7231;59.370;18.016;2023-07-02T02:14:40;4.15;;;2.50;;
14294;SDS011;7231;59.370;18.016;2023-07-02T02:17:08;2.88;;;2.67;;
14294;SDS011;7231;59.370;18.016;2023-07-02T02:19:36;5.55;;;2.42;;
14294;SDS011;7231;59.370;18.016;2023-07-02T02:22:04;2.70;;;2.50;;
14294;SDS011;7231;59.370;18.016;2023-07-02T02:24:32;3.75;;;2.70;;
14294;SDS011;7231;59.370;18.016;2023-07-02T02:27:00;4.40;;;2.92;;
14294;SDS011;7231;59.370;18.016;2023-07-02T02:29:30;3.20;;;2.90;;
14294;SDS011;7231;59.370;18.016;2023-07-02T02:31:58;3.65;;;2.70;;
14294;SDS011;7231;59.370;18.016;2023-07-02T02:34:26;3.58;;;2.90;;
14294;SDS011;7231;59.370;18.016;2023-07-02T02:36:55;3.75;;;2.55;;
14294;SDS011;7231;59.370;18.016;2023-07-02T02:39:23;3.80;;;2.80;;
14294;SDS011;7231;59.370;18.016;2023-07-02T02:41:51;3.85;;;2.75;;
14294;SDS011;7231;59.370;18.016;2023-07-02T02:44:19;3.13;;;2.72;;
14294;SDS011;7231;59.370;18.016;2023-07-02T02:46:48;2.95;;;2.75;;
14294;SDS011;7231;59.370;18.016;2023-07-02T02:49:16;2.78;;;2.58;;
14294;SDS011;7231;59.370;18.016;2023-07-02T02:51:44;3.45;;;3.03;;
14294;SDS011;7231;59.370;18.016;2023-07-02T02:54:12;3.63;;;2.70;;
14294;SDS011;7231;59.370;18.016;2023-07-02T02:56:40;4.47;;;2.97;;
14294;SDS011;7231;59.370;18.016;2023-07-02T02:59:09;3.67;;;3.08;;
14294;SDS011;7231;59.370;18.016;2023-07-02T03:01:37;8.38;;;2.92;;
14294;SDS011;7231;59.370;18.016;2023-07-02T03:04:07;4.00;;;3.05;;
14294;SDS011;7231;59.370;18.016;2023-07-02T03:06:35;2.72;;;2.53;;
14294;SDS011;7231;59.370;18.016;2023-07-02T03:09:03;3.30;;;3.00;;
14294;SDS011;7231;59.370;18.016;2023-07-02T03:11:31;2.67;;;2.47;;
14294;SDS011;7231;59.370;18.016;2023-07-02T03:13:59;3.03;;;2.35;;
14294;SDS011;7231;59.370;18.016;2023-07-02T03:16:27;2.63;;;2.40;;
14294;SDS011;7231;59.370;18.016;2023-07-02T03:18:55;3.95;;;2.67;;
14294;SDS011;7231;59.370;18.016;2023-07-02T03:21:25;3.40;;;2.80;;
14294;SDS011;7231;59.370;18.016;2023-07-02T03:23:53;2.83;;;2.50;;
14294;SDS011;7231;59.370;18.016;2023-07-02T03:26:20;2.97;;;2.60;;
14294;SDS011;7231;59.370;18.016;2023-07-02T03:28:50;2.65;;;2.45;;
14294;SDS011;7231;59.370;18.016;2023-07-02T03:31:18;3.33;;;2.20;;
14294;SDS011;7231;59.370;18.016;2023-07-02T03:33:46;2.40;;;2.20;;
14294;SDS011;7231;59.370;18.016;2023-07-02T03:36:14;4.22;;;2.70;;
14294;SDS011;7231;59.370;18.016;2023-07-02T03:38:43;3.50;;;2.30;;
14294;SDS011;7231;59.370;18.016;2023-07-02T03:41:11;2.72;;;2.25;;
14294;SDS011;7231;59.370;18.016;2023-07-02T03:43:41;2.10;;;2.00;;
14294;SDS011;7231;59.370;18.016;2023-07-02T03:46:09;3.13;;;2.40;;
14294;SDS011;7231;59.370;18.016;2023-07-02T03:48:37;3.47;;;2.17;;
14294;SDS011;7231;59.370;18.016;2023-07-02T03:51:05;3.92;;;2.42;;
14294;SDS011;7231;59.370;18.016;2023-07-02T03:53:33;2.45;;;2.25;;
14294;SDS011;7231;59.370;18.016;2023-07-02T03:56:03;2.70;;;2.50;;
14294;SDS011;7231;59.370;18.016;2023-07-02T03:58:31;2.42;;;2.10;;
14294;SDS011;7231;59.370;18.016;2023-07-02T04:01:00;2.20;;;2.00;;
14294;SDS011;7231;59.370;18.016;2023-07-02T04:03:28;1.92;;;1.83;;
14294;SDS011;7231;59.370;18.016;2023-07-02T04:05:56;2.95;;;2.03;;
14294;SDS011;7231;59.370;18.016;2023-07-02T04:08:24;2.40;;;2.03;;
14294;SDS011;7231;59.370;18.016;2023-07-02T04:10:54;2.30;;;2.10;;
14294;SDS011;7231;59.370;18.016;2023-07-02T04:13:23;4.60;;;2.38;;
14294;SDS011;7231;59.370;18.016;2023-07-02T04:15:51;3.65;;;1.95;;
14294;SDS011;7231;59.370;18.016;2023-07-02T04:18:20;3.55;;;2.30;;
14294;SDS011;7231;59.370;18.016;2023-07-02T04:20:48;3.30;;;2.17;;
14294;SDS011;7231;59.370;18.016;2023-07-02T04:23:16;1.80;;;1.70;;
14294;SDS011;7231;59.370;18.016;2023-07-02T04:25:44;2.10;;;1.85;;
14294;SDS011;7231;59.370;18.016;2023-07-02T04:28:34;5.00;;;2.03;;
14294;SDS011;7231;59.370;18.016;2023-07-02T04:31:01;4.68;;;2.00;;
14294;SDS011;7231;59.370;18.016;2023-07-02T04:33:29;2.25;;;1.60;;
14294;SDS011;7231;59.370;18.016;2023-07-02T04:36:02;1.90;;;1.70;;
14294;SDS011;7231;59.370;18.016;2023-07-02T04:38:31;2.30;;;1.70;;
14294;SDS011;7231;59.370;18.016;2023-07-02T04:40:59;2.72;;;2.03;;
14294;SDS011;7231;59.370;18.016;2023-07-02T04:43:33;2.08;;;1.88;;
14294;SDS011;7231;59.370;18.016;2023-07-02T04:46:01;2.53;;;1.88;;
14294;SDS011;7231;59.370;18.016;2023-07-02T04:48:34;2.20;;;2.00;;
14294;SDS011;7231;59.370;18.016;2023-07-02T04:51:03;2.88;;;1.85;;
14294;SDS011;7231;59.370;18.016;2023-07-02T04:53:31;2.03;;;1.83;;
14294;SDS011;7231;59.370;18.016;2023-07-02T04:55:59;2.13;;;1.73;;
14294;SDS011;7231;59.370;18.016;2023-07-02T04:58:28;2.45;;;1.95;;
14294;SDS011;7231;59.370;18.016;2023-07-02T05:00:57;2.70;;;1.80;;
14294;SDS011;7231;59.370;18.016;2023-07-02T05:03:25;2.10;;;1.90;;
14294;SDS011;7231;59.370;18.016;2023-07-02T05:05:54;2.00;;;1.80;;
14294;SDS011;7231;59.370;18.016;2023-07-02T05:08:22;2.20;;;2.00;;
14294;SDS011;7231;59.370;18.016;2023-07-02T05:10:50;2.20;;;2.00;;
14294;SDS011;7231;59.370;18.016;2023-07-02T05:13:17;5.88;;;1.90;;
14294;SDS011;7231;59.370;18.016;2023-07-02T05:15:46;2.63;;;1.65;;
14294;SDS011;7231;59.370;18.016;2023-07-02T05:18:17;1.98;;;1.88;;
14294;SDS011;7231;59.370;18.016;2023-07-02T05:20:45;2.25;;;1.98;;
14294;SDS011;7231;59.370;18.016;2023-07-02T05:23:13;2.15;;;1.95;;
14294;SDS011;7231;59.370;18.016;2023-07-02T05:25:41;2.42;;;2.00;;
14294;SDS011;7231;59.370;18.016;2023-07-02T05:28:12;3.58;;;1.60;;
14294;SDS011;7231;59.370;18.016;2023-07-02T05:30:40;2.40;;;1.73;;
14294;SDS011;7231;59.370;18.016;2023-07-02T05:33:08;2.45;;;2.10;;
14294;SDS011;7231;59.370;18.016;2023-07-02T05:35:38;1.70;;;1.58;;
14294;SDS011;7231;59.370;18.016;2023-07-02T05:38:06;2.45;;;1.67;;
14294;SDS011;7231;59.370;18.016;2023-07-02T05:40:34;2.30;;;1.42;;
14294;SDS011;7231;59.370;18.016;2023-07-02T05:43:02;1.92;;;1.50;;
14294;SDS011;7231;59.370;18.016;2023-07-02T05:45:30;2.67;;;1.40;;
14294;SDS011;7231;59.370;18.016;2023-07-02T05:47:58;1.48;;;1.33;;
14294;SDS011;7231;59.370;18.016;2023-07-02T05:50:26;1.88;;;1.42;;
14294;SDS011;7231;59.370;18.016;2023-07-02T05:52:55;1.70;;;1.58;;
14294;SDS011;7231;59.370;18.016;2023-07-02T05:55:23;2.13;;;1.60;;
14294;SDS011;7231;59.370;18.016;2023-07-02T05:57:51;2.28;;;1.52;;
14294;SDS011;7231;59.370;18.016;2023-07-02T06:00:20;1.98;;;1.67;;
14294;SDS011;7231;59.370;18.016;2023-07-02T06:02:48;2.03;;;1.50;;
14294;SDS011;7231;59.370;18.016;2023-07-02T06:05:16;2.95;;;1.45;;
14294;SDS011;7231;59.370;18.016;2023-07-02T06:07:44;1.73;;;1.38;;
14294;SDS011;7231;59.370;18.016;2023-07-02T06:10:13;2.55;;;1.40;;
14294;SDS011;7231;59.370;18.016;2023-07-02T06:12:41;1.50;;;1.40;;
14294;SDS011;7231;59.370;18.016;2023-07-02T06:15:10;2.65;;;1.73;;
14294;SDS011;7231;59.370;18.016;2023-07-02T06:17:39;2.13;;;1.70;;
14294;SDS011;7231;59.370;18.016;2023-07-02T06:20:07;2.10;;;1.50;;
14294;SDS011;7231;59.370;18.016;2023-07-02T06:22:36;3.10;;;1.60;;
14294;SDS011;7231;59.370;18.016;2023-07-02T06:25:04;2.05;;;1.85;;
14294;SDS011;7231;59.370;18.016;2023-07-02T06:27:34;1.63;;;1.50;;
14294;SDS011;7231;59.370;18.016;2023-07-02T06:30:02;2.03;;;1.77;;
14294;SDS011;7231;59.370;18.016;2023-07-02T06:32:30;2.50;;;1.40;;
14294;SDS011;7231;59.370;18.016;2023-07-02T06:34:58;2.88;;;1.80;;
14294;SDS011;7231;59.370;18.016;2023-07-02T06:37:26;2.95;;;1.50;;
14294;SDS011;7231;59.370;18.016;2023-07-02T06:39:54;1.60;;;1.48;;
14294;SDS011;7231;59.370;18.016;2023-07-02T06:42:23;1.73;;;1.50;;
14294;SDS011;7231;59.370;18.016;2023-07-02T06:44:53;2.05;;;1.67;;
14294;SDS011;7231;59.370;18.016;2023-07-02T06:47:21;1.70;;;1.60;;
14294;SDS011;7231;59.370;18.016;2023-07-02T06:49:51;1.73;;;1.60;;
14294;SDS011;7231;59.370;18.016;2023-07-02T06:52:19;2.70;;;1.90;;
14294;SDS011;7231;59.370;18.016;2023-07-02T06:54:47;2.33;;;1.50;;
14294;SDS011;7231;59.370;18.016;2023-07-02T06:57:15;2.03;;;1.83;;
14294;SDS011;7231;59.370;18.016;2023-07-02T06:59:43;1.92;;;1.60;;
14294;SDS011;7231;59.370;18.016;2023-07-02T07:02:14;1.60;;;1.50;;
14294;SDS011;7231;59.370;18.016;2023-07-02T07:04:42;3.65;;;1.75;;
14294;SDS011;7231;59.370;18.016;2023-07-02T07:07:10;2.15;;;1.52;;
14294;SDS011;7231;59.370;18.016;2023-07-02T07:09:38;1.45;;;1.35;;
14294;SDS011;7231;59.370;18.016;2023-07-02T07:12:07;2.58;;;1.67;;
14294;SDS011;7231;59.370;18.016;2023-07-02T07:14:35;2.33;;;1.60;;
14294;SDS011;7231;59.370;18.016;2023-07-02T07:17:03;2.08;;;1.67;;
14294;SDS011;7231;59.370;18.016;2023-07-02T07:19:32;1.80;;;1.70;;
14294;SDS011;7231;59.370;18.016;2023-07-02T07:22:00;2.75;;;1.50;;
14294;SDS011;7231;59.370;18.016;2023-07-02T07:24:28;2.67;;;1.75;;
14294;SDS011;7231;59.370;18.016;2023-07-02T07:26:56;2.22;;;1.80;;
14294;SDS011;7231;59.370;18.016;2023-07-02T07:29:24;2.70;;;1.75;;
14294;SDS011;7231;59.370;18.016;2023-07-02T07:31:52;2.13;;;1.63;;
14294;SDS011;7231;59.370;18.016;2023-07-02T07:34:20;2.10;;;1.70;;
14294;SDS011;7231;59.370;18.016;2023-07-02T07:36:50;1.90;;;1.80;;
14294;SDS011;7231;59.370;18.016;2023-07-02T07:39:18;2.63;;;1.80;;
14294;SDS011;7231;59.370;18.016;2023-07-02T07:41:46;2.22;;;2.00;;
14294;SDS011;7231;59.370;18.016;2023-07-02T07:44:15;2.47;;;1.80;;
14294;SDS011;7231;59.370;18.016;2023-07-02T07:46:43;2.40;;;2.03;;
14294;SDS011;7231;59.370;18.016;2023-07-02T07:49:12;2.63;;;2.00;;
14294;SDS011;7231;59.370;18.016;2023-07-02T07:51:40;5.68;;;2.63;;
14294;SDS011;7231;59.370;18.016;2023-07-02T07:54:10;6.32;;;2.85;;
14294;SDS011;7231;59.370;18.016;2023-07-02T07:56:38;2.58;;;2.38;;
14294;SDS011;7231;59.370;18.016;2023-07-02T07:59:06;4.85;;;2.95;;
14294;SDS011;7231;59.370;18.016;2023-07-02T08:01:34;4.18;;;2.83;;
14294;SDS011;7231;59.370;18.016;2023-07-02T08:04:01;4.13;;;2.97;;
14294;SDS011;7231;59.370;18.016;2023-07-02T08:06:29;3.90;;;2.58;;
14294;SDS011;7231;59.370;18.016;2023-07-02T08:08:58;6.72;;;2.80;;
14294;SDS011;7231;59.370;18.016;2023-07-02T08:11:27;4.18;;;2.85;;
14294;SDS011;7231;59.370;18.016;2023-07-02T08:13:55;4.82;;;2.80;;
14294;SDS011;7231;59.370;18.016;2023-07-02T08:16:23;5.13;;;3.33;;
14294;SDS011;7231;59.370;18.016;2023-07-02T08:18:51;5.05;;;3.17;;
14294;SDS011;7231;59.370;18.016;2023-07-02T08:21:19;2.90;;;2.70;;
14294;SDS011;7231;59.370;18.016;2023-07-02T08:23:47;4.78;;;3.10;;
14294;SDS011;7231;59.370;18.016;2023-07-02T08:26:15;5.40;;;3.85;;
14294;SDS011;7231;59.370;18.016;2023-07-02T08:28:45;6.10;;;4.00;;
14294;SDS011;7231;59.370;18.016;2023-07-02T08:31:13;7.15;;;4.10;;
14294;SDS011;7231;59.370;18.016;2023-07-02T08:33:41;7.35;;;4.50;;
14294;SDS011;7231;59.370;18.016;2023-07-02T08:36:09;7.50;;;3.90;;
14294;SDS011;7231;59.370;18.016;2023-07-02T08:38:37;5.22;;;3.80;;
14294;SDS011;7231;59.370;18.016;2023-07-02T08:41:06;6.65;;;4.13;;
14294;SDS011;7231;59.370;18.016;2023-07-02T08:43:34;4.68;;;3.88;;
14294;SDS011;7231;59.370;18.016;2023-07-02T08:46:04;6.10;;;3.92;;
14294;SDS011;7231;59.370;18.016;2023-07-02T08:48:33;4.32;;;3.88;;
14294;SDS011;7231;59.370;18.016;2023-07-02T08:51:02;5.22;;;4.20;;
14294;SDS011;7231;59.370;18.016;2023-07-02T08:53:30;7.63;;;4.88;;
14294;SDS011;7231;59.370;18.016;2023-07-02T08:56:00;7.32;;;5.18;;
14294;SDS011;7231;59.370;18.016;2023-07-02T08:58:28;7.15;;;4.80;;
14294;SDS011;7231;59.370;18.016;2023-07-02T09:01:08;8.85;;;6.10;;
14294;SDS011;7231;59.370;18.016;2023-07-02T09:03:37;11.27;;;5.93;;
14294;SDS011;7231;59.370;18.016;2023-07-02T09:06:06;5.75;;;5.10;;
14294;SDS011;7231;59.370;18.016;2023-07-02T09:08:35;8.52;;;5.07;;
14294;SDS011;7231;59.370;18.016;2023-07-02T09:11:06;7.03;;;5.60;;
14294;SDS011;7231;59.370;18.016;2023-07-02T09:13:42;6.32;;;5.40;;
14294;SDS011;7231;59.370;18.016;2023-07-02T09:16:22;6.60;;;5.43;;
14294;SDS011;7231;59.370;18.016;2023-07-02T09:19:01;7.28;;;5.45;;
14294;SDS011;7231;59.370;18.016;2023-07-02T09:21:40;9.82;;;5.20;;
14294;SDS011;7231;59.370;18.016;2023-07-02T09:24:13;7.72;;;5.60;;
14294;SDS011;7231;59.370;18.016;2023-07-02T09:26:43;6.13;;;5.22;;
14294;SDS011;7231;59.370;18.016;2023-07-02T09:43:39;6.32;;;3.97;;
14294;SDS011;7231;59.370;18.016;2023-07-02T09:46:08;8.20;;;4.38;;
14294;SDS011;7231;59.370;18.016;2023-07-02T09:48:36;4.35;;;3.47;;
14294;SDS011;7231;59.370;18.016;2023-07-02T09:51:04;5.18;;;3.33;;
14294;SDS011;7231;59.370;18.016;2023-07-02T09:53:32;4.40;;;3.60;;
14294;SDS011;7231;59.370;18.016;2023-07-02T09:56:00;5.60;;;3.47;;
14294;SDS011;7231;59.370;18.016;2023-07-02T09:58:29;5.47;;;3.35;;
14294;SDS011;7231;59.370;18.016;2023-07-02T10:00:59;4.28;;;3.65;;
14294;SDS011;7231;59.370;18.016;2023-07-02T10:03:27;5.90;;;3.40;;
14294;SDS011;7231;59.370;18.016;2023-07-02T10:06:03;4.93;;;4.05;;
14294;SDS011;7231;59.370;18.016;2023-07-02T10:08:32;4.00;;;3.50;;
14294;SDS011;7231;59.370;18.016;2023-07-02T10:11:09;4.40;;;3.20;;
14294;SDS011;7231;59.370;18.016;2023-07-02T10:13:39;4.30;;;3.55;;
14294;SDS011;7231;59.370;18.016;2023-07-02T10:16:09;5.90;;;3.87;;
14294;SDS011;7231;59.370;18.016;2023-07-02T10:18:37;3.80;;;3.35;;
14294;SDS011;7231;59.370;18.016;2023-07-02T10:21:14;4.47;;;3.88;;
14294;SDS011;7231;59.370;18.016;2023-07-02T10:23:43;4.82;;;4.13;;
14294;SDS011;7231;59.370;18.016;2023-07-02T10:26:13;4.38;;;3.97;;
14294;SDS011;7231;59.370;18.016;2023-07-02T10:28:42;5.50;;;3.85;;
14294;SDS011;7231;59.370;18.016;2023-07-02T10:31:21;4.10;;;3.70;;
14294;SDS011;7231;59.370;18.016;2023-07-02T10:33:49;5.95;;;3.30;;
14294;SDS011;7231;59.370;18.016;2023-07-02T10:36:17;4.68;;;4.00;;
14294;SDS011;7231;59.370;18.016;2023-07-02T10:38:47;5.50;;;4.45;;
14294;SDS011;7231;59.370;18.016;2023-07-02T10:41:25;6.70;;;4.88;;
14294;SDS011;7231;59.370;18.016;2023-07-02T10:44:04;8.27;;;5.00;;
14294;SDS011;7231;59.370;18.016;2023-07-02T10:46:34;6.68;;;4.82;;
14294;SDS011;7231;59.370;18.016;2023-07-02T10:49:09;5.95;;;5.32;;
14294;SDS011;7231;59.370;18.016;2023-07-02T10:51:38;8.13;;;4.70;;
14294;SDS011;7231;59.370;18.016;2023-07-02T10:54:06;5.63;;;3.97;;
14294;SDS011;7231;59.370;18.016;2023-07-02T10:56:34;4.60;;;3.80;;
14294;SDS011;7231;59.370;18.016;2023-07-02T10:59:03;5.40;;;4.60;;
14294;SDS011;7231;59.370;18.016;2023-07-02T11:01:31;4.38;;;3.90;;
14294;SDS011;7231;59.370;18.016;2023-07-02T11:04:01;6.57;;;4.28;;
14294;SDS011;7231;59.370;18.016;2023-07-02T11:06:31;6.93;;;4.88;;
14294;SDS011;7231;59.370;18.016;2023-07-02T11:09:00;6.10;;;4.43;;
14294;SDS011;7231;59.370;18.016;2023-07-02T11:11:30;4.32;;;3.92;;
14294;SDS011;7231;59.370;18.016;2023-07-02T11:13:58;4.78;;;4.28;;
14294;SDS011;7231;59.370;18.016;2023-07-02T11:16:26;5.45;;;4.40;;
14294;SDS011;7231;59.370;18.016;2023-07-02T11:19:07;7.97;;;4.88;;
14294;SDS011;7231;59.370;18.016;2023-07-02T11:21:36;4.82;;;4.43;;
14294;SDS011;7231;59.370;18.016;2023-07-02T11:24:05;4.43;;;4.00;;
14294;SDS011;7231;59.370;18.016;2023-07-02T11:26:35;6.85;;;5.22;;
14294;SDS011;7231;59.370;18.016;2023-07-02T11:29:03;7.03;;;4.75;;
14294;SDS011;7231;59.370;18.016;2023-07-02T11:31:36;5.00;;;4.47;;
14294;SDS011;7231;59.370;18.016;2023-07-02T11:34:12;4.35;;;4.05;;
14294;SDS011;7231;59.370;18.016;2023-07-02T11:36:43;7.25;;;4.97;;
14294;SDS011;7231;59.370;18.016;2023-07-02T11:39:11;4.50;;;4.20;;
14294;SDS011;7231;59.370;18.016;2023-07-02T11:41:40;6.05;;;5.20;;
14294;SDS011;7231;59.370;18.016;2023-07-02T11:44:09;6.47;;;4.95;;
14294;SDS011;7231;59.370;18.016;2023-07-02T11:46:37;5.05;;;4.53;;
14294;SDS011;7231;59.370;18.016;2023-07-02T11:49:05;4.50;;;4.10;;
14294;SDS011;7231;59.370;18.016;2023-07-02T11:51:36;4.45;;;4.00;;
14294;SDS011;7231;59.370;18.016;2023-07-02T11:54:05;4.25;;;3.85;;
14294;SDS011;7231;59.370;18.016;2023-07-02T11:56:34;4.20;;;3.75;;
14294;SDS011;7231;59.370;18.016;2023-07-02T11:59:02;2.92;;;2.65;;
14294;SDS011;7231;59.370;18.016;2023-07-02T12:01:30;3.00;;;2.80;;
14294;SDS011;7231;59.370;18.016;2023-07-02T12:03:58;4.03;;;2.83;;
14294;SDS011;7231;59.370;18.016;2023-07-02T12:06:26;4.45;;;3.55;;
14294;SDS011;7231;59.370;18.016;2023-07-02T12:08:56;5.43;;;3.95;;
14294;SDS011;7231;59.370;18.016;2023-07-02T12:11:24;4.93;;;4.38;;
14294;SDS011;7231;59.370;18.016;2023-07-02T12:13:52;7.63;;;4.85;;
14294;SDS011;7231;59.370;18.016;2023-07-02T12:16:19;5.35;;;4.38;;
14294;SDS011;7231;59.370;18.016;2023-07-02T12:18:47;6.32;;;3.72;;
14294;SDS011;7231;59.370;18.016;2023-07-02T12:21:15;4.50;;;4.05;;
14294;SDS011;7231;59.370;18.016;2023-07-02T12:23:44;5.45;;;4.30;;
14294;SDS011;7231;59.370;18.016;2023-07-02T12:26:14;4.95;;;4.15;;
14294;SDS011;7231;59.370;18.016;2023-07-02T12:28:42;4.50;;;4.10;;
14294;SDS011;7231;59.370;18.016;2023-07-02T12:31:10;4.07;;;3.67;;
14294;SDS011;7231;59.370;18.016;2023-07-02T12:33:39;4.07;;;3.72;;
14294;SDS011;7231;59.370;18.016;2023-07-02T12:36:07;7.20;;;4.20;;
14294;SDS011;7231;59.370;18.016;2023-07-02T12:38:35;5.10;;;4.57;;
14294;SDS011;7231;59.370;18.016;2023-07-02T12:41:03;4.90;;;4.40;;
14294;SDS011;7231;59.370;18.016;2023-07-02T12:43:33;5.00;;;4.22;;
14294;SDS011;7231;59.370;18.016;2023-07-02T12:46:01;4.55;;;4.05;;
14294;SDS011;7231;59.370;18.016;2023-07-02T12:48:29;3.83;;;3.53;;
14294;SDS011;7231;59.370;18.016;2023-07-02T12:50:57;3.92;;;3.58;;
14294;SDS011;7231;59.370;18.016;2023-07-02T12:53:27;3.90;;;3.30;;
14294;SDS011;7231;59.370;18.016;2023-07-02T12:55:55;3.90;;;3.30;;
14294;SDS011;7231;59.370;18.016;2023-07-02T12:58:23;3.63;;;2.83;;
14294;SDS011;7231;59.370;18.016;2023-07-02T13:00:52;3.47;;;3.17;;
14294;SDS011;7231;59.370;18.016;2023-07-02T13:03:21;4.45;;;4.03;;
14294;SDS011;7231;59.370;18.016;2023-07-02T13:05:51;3.88;;;3.10;;
14294;SDS011;7231;59.370;18.016;2023-07-02T13:08:19;4.05;;;3.05;;
14294;SDS011;7231;59.370;18.016;2023-07-02T13:10:47;4.03;;;3.20;;
14294;SDS011;7231;59.370;18.016;2023-07-02T13:13:15;3.92;;;3.47;;
14294;SDS011;7231;59.370;18.016;2023-07-02T13:15:49;3.35;;;2.78;;
14294;SDS011;7231;59.370;18.016;2023-07-02T13:18:19;3.75;;;2.80;;
14294;SDS011;7231;59.370;18.016;2023-07-02T13:20:47;3.10;;;2.78;;
14294;SDS011;7231;59.370;18.016;2023-07-02T13:23:15;6.05;;;3.33;;
14294;SDS011;7231;59.370;18.016;2023-07-02T13:25:44;2.97;;;2.78;;
14294;SDS011;7231;59.370;18.016;2023-07-02T13:28:12;3.90;;;3.45;;
14294;SDS011;7231;59.370;18.016;2023-07-02T13:30:40;3.85;;;3.28;;
14294;SDS011;7231;59.370;18.016;2023-07-02T13:33:08;5.55;;;3.63;;
14294;SDS011;7231;59.370;18.016;2023-07-02T13:35:37;4.00;;;3.60;;
14294;SDS011;7231;59.370;18.016;2023-07-02T13:38:05;4.50;;;4.10;;
14294;SDS011;7231;59.370;18.016;2023-07-02T13:40:33;5.95;;;4.00;;
14294;SDS011;7231;59.370;18.016;2023-07-02T13:43:01;7.78;;;3.63;;
14294;SDS011;7231;59.370;18.016;2023-07-02T13:45:30;4.18;;;3.78;;
14294;SDS011;7231;59.370;18.016;2023-07-02T13:47:58;4.63;;;4.10;;
14294;SDS011;7231;59.370;18.016;2023-07-02T13:50:26;4.22;;;3.63;;
14294;SDS011;7231;59.370;18.016;2023-07-02T13:52:55;5.13;;;4.40;;
14294;SDS011;7231;59.370;18.016;2023-07-02T13:55:23;5.78;;;5.20;;
14294;SDS011;7231;59.370;18.016;2023-07-02T13:57:54;7.20;;;6.35;;
14294;SDS011;7231;59.370;18.016;2023-07-02T14:00:25;7.63;;;6.35;;
14294;SDS011;7231;59.370;18.016;2023-07-02T14:02:53;7.50;;;6.70;;
14294;SDS011;7231;59.370;18.016;2023-07-02T14:05:22;8.02;;;7.22;;
14294;SDS011;7231;59.370;18.016;2023-07-02T14:07:50;11.75;;;7.85;;
14294;SDS011;7231;59.370;18.016;2023-07-02T14:10:19;8.48;;;7.40;;
14294;SDS011;7231;59.370;18.016;2023-07-02T14:12:47;7.88;;;6.47;;
14294;SDS011;7231;59.370;18.016;2023-07-02T14:15:15;10.57;;;7.70;;
14294;SDS011;7231;59.370;18.016;2023-07-02T14:17:44;6.68;;;6.00;;
14294;SDS011;7231;59.370;18.016;2023-07-02T14:20:12;6.88;;;6.18;;
14294;SDS011;7231;59.370;18.016;2023-07-02T14:22:40;7.20;;;6.47;;
14294;SDS011;7231;59.370;18.016;2023-07-02T14:25:09;7.60;;;6.82;;
14294;SDS011;7231;59.370;18.016;2023-07-02T14:27:37;9.63;;;6.65;;
14294;SDS011;7231;59.370;18.016;2023-07-02T14:30:05;8.27;;;6.82;;
14294;SDS011;7231;59.370;18.016;2023-07-02T14:32:34;7.93;;;5.63;;
14294;SDS011;7231;59.370;18.016;2023-07-02T14:35:04;7.70;;;6.63;;
14294;SDS011;7231;59.370;18.016;2023-07-02T14:37:33;7.93;;;6.70;;
14294;SDS011;7231;59.370;18.016;2023-07-02T14:40:00;8.77;;;6.40;;
14294;SDS011;7231;59.370;18.016;2023-07-02T14:42:32;6.88;;;6.28;;
14294;SDS011;7231;59.370;18.016;2023-07-02T14:45:01;10.43;;;7.72;;
14294;SDS011;7231;59.370;18.016;2023-07-02T14:47:29;8.18;;;7.00;;
14294;SDS011;7231;59.370;18.016;2023-07-02T14:49:57;10.48;;;7.03;;
14294;SDS011;7231;59.370;18.016;2023-07-02T14:52:26;8.13;;;5.68;;
14294;SDS011;7231;59.370;18.016;2023-07-02T14:54:55;6.72;;;5.45;;
14294;SDS011;7231;59.370;18.016;2023-07-02T14:57:25;5.95;;;5.35;;
14294;SDS011;7231;59.370;18.016;2023-07-02T14:59:53;5.57;;;4.75;;
14294;SDS011;7231;59.370;18.016;2023-07-02T15:02:22;6.63;;;4.70;;
14294;SDS011;7231;59.370;18.016;2023-07-02T15:04:50;5.10;;;4.70;;
14294;SDS011;7231;59.370;18.016;2023-07-02T15:07:19;5.80;;;4.93;;
14294;SDS011;7231;59.370;18.016;2023-07-02T15:09:48;5.60;;;4.80;;
14294;SDS011;7231;59.370;18.016;2023-07-02T15:12:16;5.28;;;4.30;;